sensor_id;sensor_type;location;lat;lon;timestamp;pressure;altitude;pressure_sealevel;temperature
70831;BMP180;58451;51.550;7.208;2023-08-08T00:00:05;100698.60;;;13.90
70831;BMP180;58451;51.550;7.208;2023-08-08T00:01:37;100699.20;;;13.90
70831;BMP180;58451;51.550;7.208;2023-08-08T00:03:09;100699.20;;;13.90
70831;BMP180;58451;51.550;7.208;2023-08-08T00:04:41;100697.40;;;13.90
70831;BMP180;58451;51.550;7.208;2023-08-08T00:06:13;100693.20;;;13.90
70831;BMP180;58451;51.550;7.208;2023-08-08T00:07:45;100690.40;;;13.90
70831;BMP180;58451;51.550;7.208;2023-08-08T00:09:17;100685.00;;;13.90
70831;BMP180;58451;51.550;7.208;2023-08-08T00:10:49;100686.00;;;13.90
70831;BMP180;58451;51.550;7.208;2023-08-08T00:12:21;100682.20;;;13.92
70831;BMP180;58451;51.550;7.208;2023-08-08T00:13:53;100676.60;;;13.92
70831;BMP180;58451;51.550;7.208;2023-08-08T00:15:25;100678.20;;;13.98
70831;BMP180;58451;51.550;7.208;2023-08-08T00:16:57;100681.00;;;13.96
70831;BMP180;58451;51.550;7.208;2023-08-08T00:18:29;100679.80;;;14.00
70831;BMP180;58451;51.550;7.208;2023-08-08T00:20:01;100677.40;;;14.00
70831;BMP180;58451;51.550;7.208;2023-08-08T00:21:33;100681.00;;;14.00
70831;BMP180;58451;51.550;7.208;2023-08-08T00:23:05;100679.40;;;14.00
70831;BMP180;58451;51.550;7.208;2023-08-08T00:24:37;100687.60;;;14.00
70831;BMP180;58451;51.550;7.208;2023-08-08T00:26:09;100686.00;;;14.00
70831;BMP180;58451;51.550;7.208;2023-08-08T00:27:40;100685.60;;;14.00
70831;BMP180;58451;51.550;7.208;2023-08-08T00:29:15;100687.80;;;14.00
70831;BMP180;58451;51.550;7.208;2023-08-08T00:30:47;100683.60;;;14.00
70831;BMP180;58451;51.550;7.208;2023-08-08T00:32:19;100685.00;;;14.00
70831;BMP180;58451;51.550;7.208;2023-08-08T00:33:51;100683.80;;;14.00
70831;BMP180;58451;51.550;7.208;2023-08-08T00:35:22;100677.60;;;14.06
70831;BMP180;58451;51.550;7.208;2023-08-08T00:36:54;100673.60;;;14.10
70831;BMP180;58451;51.550;7.208;2023-08-08T00:38:26;100672.80;;;14.10
70831;BMP180;58451;51.550;7.208;2023-08-08T00:39:58;100669.00;;;14.10
70831;BMP180;58451;51.550;7.208;2023-08-08T00:41:30;100672.80;;;14.10
70831;BMP180;58451;51.550;7.208;2023-08-08T00:43:03;100668.20;;;14.10
70831;BMP180;58451;51.550;7.208;2023-08-08T00:44:34;100664.60;;;14.10
70831;BMP180;58451;51.550;7.208;2023-08-08T00:46:08;100667.20;;;14.10
70831;BMP180;58451;51.550;7.208;2023-08-08T00:47:41;100671.80;;;14.10
70831;BMP180;58451;51.550;7.208;2023-08-08T00:49:13;100671.40;;;14.06
70831;BMP180;58451;51.550;7.208;2023-08-08T00:50:45;100671.80;;;14.08
70831;BMP180;58451;51.550;7.208;2023-08-08T00:52:17;100667.60;;;14.06
70831;BMP180;58451;51.550;7.208;2023-08-08T00:53:50;100670.20;;;14.00
70831;BMP180;58451;51.550;7.208;2023-08-08T00:55:22;100674.40;;;14.02
70831;BMP180;58451;51.550;7.208;2023-08-08T00:56:54;100672.40;;;14.00
70831;BMP180;58451;51.550;7.208;2023-08-08T00:58:26;100672.60;;;14.00
70831;BMP180;58451;51.550;7.208;2023-08-08T00:59:58;100667.60;;;14.02
70831;BMP180;58451;51.550;7.208;2023-08-08T01:01:30;100670.20;;;14.00
70831;BMP180;58451;51.550;7.208;2023-08-08T01:04:01;100665.40;;;14.02
70831;BMP180;58451;51.550;7.208;2023-08-08T01:05:47;100664.20;;;14.02
70831;BMP180;58451;51.550;7.208;2023-08-08T01:07:47;100666.20;;;14.06
70831;BMP180;58451;51.550;7.208;2023-08-08T01:09:54;100663.00;;;14.10
70831;BMP180;58451;51.550;7.208;2023-08-08T01:11:30;100663.60;;;14.10
70831;BMP180;58451;51.550;7.208;2023-08-08T01:13:14;100667.60;;;14.10
70831;BMP180;58451;51.550;7.208;2023-08-08T01:14:46;100662.80;;;14.10
70831;BMP180;58451;51.550;7.208;2023-08-08T01:16:20;100662.20;;;14.10
70831;BMP180;58451;51.550;7.208;2023-08-08T01:17:54;100662.00;;;14.10
70831;BMP180;58451;51.550;7.208;2023-08-08T01:19:30;100667.00;;;14.10
70831;BMP180;58451;51.550;7.208;2023-08-08T01:21:06;100661.20;;;14.10
70831;BMP180;58451;51.550;7.208;2023-08-08T01:22:59;100663.80;;;14.10
70831;BMP180;58451;51.550;7.208;2023-08-08T01:24:36;100660.20;;;14.10
70831;BMP180;58451;51.550;7.208;2023-08-08T01:26:09;100664.20;;;14.10
70831;BMP180;58451;51.550;7.208;2023-08-08T01:27:43;100660.40;;;14.10
70831;BMP180;58451;51.550;7.208;2023-08-08T01:29:16;100658.40;;;14.10
70831;BMP180;58451;51.550;7.208;2023-08-08T01:30:49;100660.40;;;14.10
70831;BMP180;58451;51.550;7.208;2023-08-08T01:32:23;100664.60;;;14.10
70831;BMP180;58451;51.550;7.208;2023-08-08T01:33:55;100664.20;;;14.10
70831;BMP180;58451;51.550;7.208;2023-08-08T01:35:32;100662.40;;;14.10
70831;BMP180;58451;51.550;7.208;2023-08-08T01:37:29;100659.60;;;14.10
70831;BMP180;58451;51.550;7.208;2023-08-08T01:39:06;100655.60;;;14.12
70831;BMP180;58451;51.550;7.208;2023-08-08T01:40:43;100657.40;;;14.14
70831;BMP180;58451;51.550;7.208;2023-08-08T01:42:21;100656.80;;;14.20
70831;BMP180;58451;51.550;7.208;2023-08-08T01:43:54;100654.80;;;14.16
70831;BMP180;58451;51.550;7.208;2023-08-08T01:45:26;100656.80;;;14.20
70831;BMP180;58451;51.550;7.208;2023-08-08T01:46:59;100655.60;;;14.14
70831;BMP180;58451;51.550;7.208;2023-08-08T01:48:31;100652.00;;;14.10
70831;BMP180;58451;51.550;7.208;2023-08-08T01:50:03;100655.80;;;14.10
70831;BMP180;58451;51.550;7.208;2023-08-08T01:51:36;100654.20;;;14.10
70831;BMP180;58451;51.550;7.208;2023-08-08T01:53:08;100655.80;;;14.10
70831;BMP180;58451;51.550;7.208;2023-08-08T01:54:39;100654.20;;;14.10
70831;BMP180;58451;51.550;7.208;2023-08-08T01:56:14;100651.40;;;14.02
70831;BMP180;58451;51.550;7.208;2023-08-08T01:57:45;100647.00;;;14.00
70831;BMP180;58451;51.550;7.208;2023-08-08T01:59:17;100647.00;;;14.00
70831;BMP180;58451;51.550;7.208;2023-08-08T02:00:49;100643.00;;;14.00
70831;BMP180;58451;51.550;7.208;2023-08-08T02:02:21;100640.80;;;13.90
70831;BMP180;58451;51.550;7.208;2023-08-08T02:03:54;100641.20;;;13.90
70831;BMP180;58451;51.550;7.208;2023-08-08T02:05:26;100642.20;;;13.90
70831;BMP180;58451;51.550;7.208;2023-08-08T02:06:58;100642.40;;;13.90
70831;BMP180;58451;51.550;7.208;2023-08-08T02:08:30;100631.80;;;13.90
70831;BMP180;58451;51.550;7.208;2023-08-08T02:10:02;100631.60;;;13.90
70831;BMP180;58451;51.550;7.208;2023-08-08T02:11:35;100623.80;;;13.90
70831;BMP180;58451;51.550;7.208;2023-08-08T02:13:07;100624.00;;;13.90
70831;BMP180;58451;51.550;7.208;2023-08-08T02:14:39;100622.20;;;13.90
70831;BMP180;58451;51.550;7.208;2023-08-08T02:16:11;100622.20;;;13.90
70831;BMP180;58451;51.550;7.208;2023-08-08T02:17:43;100624.40;;;13.90
70831;BMP180;58451;51.550;7.208;2023-08-08T02:19:15;100624.60;;;13.90
70831;BMP180;58451;51.550;7.208;2023-08-08T02:20:47;100620.20;;;13.90
70831;BMP180;58451;51.550;7.208;2023-08-08T02:22:19;100627.20;;;13.90
70831;BMP180;58451;51.550;7.208;2023-08-08T02:23:52;100622.20;;;13.90
70831;BMP180;58451;51.550;7.208;2023-08-08T02:25:24;100623.60;;;13.90
70831;BMP180;58451;51.550;7.208;2023-08-08T02:26:56;100623.60;;;13.90
70831;BMP180;58451;51.550;7.208;2023-08-08T02:28:28;100629.00;;;13.90
70831;BMP180;58451;51.550;7.208;2023-08-08T02:30:00;100630.40;;;13.90
70831;BMP180;58451;51.550;7.208;2023-08-08T02:31:32;100621.40;;;13.90
70831;BMP180;58451;51.550;7.208;2023-08-08T02:33:05;100620.60;;;13.90
70831;BMP180;58451;51.550;7.208;2023-08-08T02:34:38;100626.40;;;13.90
70831;BMP180;58451;51.550;7.208;2023-08-08T02:36:10;100629.00;;;13.90
70831;BMP180;58451;51.550;7.208;2023-08-08T02:37:43;100626.40;;;13.90
70831;BMP180;58451;51.550;7.208;2023-08-08T02:39:15;100632.20;;;13.90
70831;BMP180;58451;51.550;7.208;2023-08-08T02:40:47;100626.60;;;13.90
70831;BMP180;58451;51.550;7.208;2023-08-08T02:42:20;100630.80;;;13.90
70831;BMP180;58451;51.550;7.208;2023-08-08T02:43:52;100627.60;;;13.90
70831;BMP180;58451;51.550;7.208;2023-08-08T02:45:24;100631.00;;;13.90
70831;BMP180;58451;51.550;7.208;2023-08-08T02:46:57;100630.80;;;13.90
70831;BMP180;58451;51.550;7.208;2023-08-08T02:48:29;100633.60;;;13.86
70831;BMP180;58451;51.550;7.208;2023-08-08T02:50:02;100630.00;;;13.84
70831;BMP180;58451;51.550;7.208;2023-08-08T02:51:34;100626.60;;;13.82
70831;BMP180;58451;51.550;7.208;2023-08-08T02:53:06;100630.60;;;13.80
70831;BMP180;58451;51.550;7.208;2023-08-08T02:54:42;100625.00;;;13.80
70831;BMP180;58451;51.550;7.208;2023-08-08T02:56:14;100628.20;;;13.80
70831;BMP180;58451;51.550;7.208;2023-08-08T02:57:46;100621.00;;;13.80
70831;BMP180;58451;51.550;7.208;2023-08-08T02:59:18;100614.80;;;13.80
70831;BMP180;58451;51.550;7.208;2023-08-08T03:00:50;100612.60;;;13.80
70831;BMP180;58451;51.550;7.208;2023-08-08T03:02:22;100603.00;;;13.80
70831;BMP180;58451;51.550;7.208;2023-08-08T03:03:54;100605.80;;;13.80
70831;BMP180;58451;51.550;7.208;2023-08-08T03:05:27;100609.20;;;13.80
70831;BMP180;58451;51.550;7.208;2023-08-08T03:06:59;100608.40;;;13.80
70831;BMP180;58451;51.550;7.208;2023-08-08T03:08:35;100607.00;;;13.78
70831;BMP180;58451;51.550;7.208;2023-08-08T03:10:08;100599.80;;;13.78
70831;BMP180;58451;51.550;7.208;2023-08-08T03:11:41;100603.40;;;13.78
70831;BMP180;58451;51.550;7.208;2023-08-08T03:13:15;100594.20;;;13.70
70831;BMP180;58451;51.550;7.208;2023-08-08T03:14:48;100589.80;;;13.72
70831;BMP180;58451;51.550;7.208;2023-08-08T03:16:20;100584.20;;;13.70
70831;BMP180;58451;51.550;7.208;2023-08-08T03:17:52;100580.00;;;13.70
70831;BMP180;58451;51.550;7.208;2023-08-08T03:19:25;100581.80;;;13.70
70831;BMP180;58451;51.550;7.208;2023-08-08T03:20:57;100586.80;;;13.70
70831;BMP180;58451;51.550;7.208;2023-08-08T03:22:31;100582.60;;;13.70
70831;BMP180;58451;51.550;7.208;2023-08-08T03:24:04;100593.80;;;13.70
70831;BMP180;58451;51.550;7.208;2023-08-08T03:25:36;100599.20;;;13.70
70831;BMP180;58451;51.550;7.208;2023-08-08T03:27:08;100596.60;;;13.70
70831;BMP180;58451;51.550;7.208;2023-08-08T03:28:41;100602.60;;;13.70
70831;BMP180;58451;51.550;7.208;2023-08-08T03:30:13;100598.00;;;13.70
70831;BMP180;58451;51.550;7.208;2023-08-08T03:31:47;100599.40;;;13.70
70831;BMP180;58451;51.550;7.208;2023-08-08T03:33:19;100599.00;;;13.70
70831;BMP180;58451;51.550;7.208;2023-08-08T03:34:51;100595.20;;;13.70
70831;BMP180;58451;51.550;7.208;2023-08-08T03:36:23;100598.00;;;13.70
70831;BMP180;58451;51.550;7.208;2023-08-08T03:37:55;100591.40;;;13.66
70831;BMP180;58451;51.550;7.208;2023-08-08T03:39:28;100594.00;;;13.60
70831;BMP180;58451;51.550;7.208;2023-08-08T03:41:00;100596.20;;;13.60
70831;BMP180;58451;51.550;7.208;2023-08-08T03:42:32;100594.80;;;13.60
70831;BMP180;58451;51.550;7.208;2023-08-08T03:44:04;100594.60;;;13.60
70831;BMP180;58451;51.550;7.208;2023-08-08T03:45:36;100588.80;;;13.60
70831;BMP180;58451;51.550;7.208;2023-08-08T03:47:08;100584.20;;;13.60
70831;BMP180;58451;51.550;7.208;2023-08-08T03:48:50;100569.80;;;13.50
70831;BMP180;58451;51.550;7.208;2023-08-08T03:50:25;100563.20;;;13.50
70831;BMP180;58451;51.550;7.208;2023-08-08T03:51:58;100564.00;;;13.44
70831;BMP180;58451;51.550;7.208;2023-08-08T03:53:31;100557.80;;;13.40
70831;BMP180;58451;51.550;7.208;2023-08-08T03:55:05;100563.20;;;13.40
70831;BMP180;58451;51.550;7.208;2023-08-08T03:56:38;100565.20;;;13.30
70831;BMP180;58451;51.550;7.208;2023-08-08T03:58:09;100565.60;;;13.30
70831;BMP180;58451;51.550;7.208;2023-08-08T03:59:41;100567.80;;;13.30
70831;BMP180;58451;51.550;7.208;2023-08-08T04:01:13;100571.00;;;13.26
70831;BMP180;58451;51.550;7.208;2023-08-08T04:02:45;100578.60;;;13.20
70831;BMP180;58451;51.550;7.208;2023-08-08T04:04:17;100588.80;;;13.20
70831;BMP180;58451;51.550;7.208;2023-08-08T04:05:50;100591.60;;;13.20
70831;BMP180;58451;51.550;7.208;2023-08-08T04:07:22;100598.60;;;13.20
70831;BMP180;58451;51.550;7.208;2023-08-08T04:08:54;100599.20;;;13.12
70831;BMP180;58451;51.550;7.208;2023-08-08T04:10:26;100609.40;;;13.12
70831;BMP180;58451;51.550;7.208;2023-08-08T04:11:58;100612.20;;;13.10
70831;BMP180;58451;51.550;7.208;2023-08-08T04:13:30;100607.60;;;13.10
70831;BMP180;58451;51.550;7.208;2023-08-08T04:15:03;100609.00;;;13.10
70831;BMP180;58451;51.550;7.208;2023-08-08T04:16:35;100612.00;;;13.10
70831;BMP180;58451;51.550;7.208;2023-08-08T04:18:07;100607.40;;;13.10
70831;BMP180;58451;51.550;7.208;2023-08-08T04:19:39;100602.80;;;13.10
70831;BMP180;58451;51.550;7.208;2023-08-08T04:21:11;100602.20;;;13.10
70831;BMP180;58451;51.550;7.208;2023-08-08T04:22:43;100599.60;;;13.10
70831;BMP180;58451;51.550;7.208;2023-08-08T04:24:15;100600.40;;;13.10
70831;BMP180;58451;51.550;7.208;2023-08-08T04:25:47;100591.80;;;13.10
70831;BMP180;58451;51.550;7.208;2023-08-08T04:27:19;100593.00;;;13.12
70831;BMP180;58451;51.550;7.208;2023-08-08T04:28:51;100592.40;;;13.12
70831;BMP180;58451;51.550;7.208;2023-08-08T04:30:23;100592.00;;;13.10
70831;BMP180;58451;51.550;7.208;2023-08-08T04:31:55;100588.80;;;13.10
70831;BMP180;58451;51.550;7.208;2023-08-08T04:33:27;100586.00;;;13.18
70831;BMP180;58451;51.550;7.208;2023-08-08T04:34:59;100589.60;;;13.20
70831;BMP180;58451;51.550;7.208;2023-08-08T04:36:31;100586.80;;;13.20
70831;BMP180;58451;51.550;7.208;2023-08-08T04:38:03;100579.80;;;13.20
70831;BMP180;58451;51.550;7.208;2023-08-08T04:39:35;100580.40;;;13.20
70831;BMP180;58451;51.550;7.208;2023-08-08T04:41:07;100589.20;;;13.20
70831;BMP180;58451;51.550;7.208;2023-08-08T04:42:41;100588.80;;;13.20
70831;BMP180;58451;51.550;7.208;2023-08-08T04:44:13;100588.60;;;13.20
70831;BMP180;58451;51.550;7.208;2023-08-08T04:45:45;100589.60;;;13.20
70831;BMP180;58451;51.550;7.208;2023-08-08T04:47:17;100586.40;;;13.20
70831;BMP180;58451;51.550;7.208;2023-08-08T04:48:48;100582.80;;;13.20
70831;BMP180;58451;51.550;7.208;2023-08-08T04:50:22;100586.00;;;13.20
70831;BMP180;58451;51.550;7.208;2023-08-08T04:51:54;100590.60;;;13.20
70831;BMP180;58451;51.550;7.208;2023-08-08T04:53:26;100590.20;;;13.20
70831;BMP180;58451;51.550;7.208;2023-08-08T04:54:58;100583.80;;;13.20
70831;BMP180;58451;51.550;7.208;2023-08-08T04:56:29;100579.20;;;13.22
70831;BMP180;58451;51.550;7.208;2023-08-08T04:58:01;100584.60;;;13.30
70831;BMP180;58451;51.550;7.208;2023-08-08T04:59:33;100578.00;;;13.30
70831;BMP180;58451;51.550;7.208;2023-08-08T05:01:05;100577.00;;;13.30
70831;BMP180;58451;51.550;7.208;2023-08-08T05:02:40;100572.00;;;13.30
70831;BMP180;58451;51.550;7.208;2023-08-08T05:04:13;100570.20;;;13.30
70831;BMP180;58451;51.550;7.208;2023-08-08T05:05:45;100565.80;;;13.30
70831;BMP180;58451;51.550;7.208;2023-08-08T05:07:17;100567.80;;;13.40
70831;BMP180;58451;51.550;7.208;2023-08-08T05:08:52;100565.40;;;13.40
70831;BMP180;58451;51.550;7.208;2023-08-08T05:10:24;100572.60;;;13.40
70831;BMP180;58451;51.550;7.208;2023-08-08T05:11:56;100571.80;;;13.40
70831;BMP180;58451;51.550;7.208;2023-08-08T05:13:29;100578.40;;;13.40
70831;BMP180;58451;51.550;7.208;2023-08-08T05:15:03;100579.60;;;13.40
70831;BMP180;58451;51.550;7.208;2023-08-08T05:16:35;100578.60;;;13.40
70831;BMP180;58451;51.550;7.208;2023-08-08T05:18:07;100585.00;;;13.40
70831;BMP180;58451;51.550;7.208;2023-08-08T05:19:40;100584.60;;;13.42
70831;BMP180;58451;51.550;7.208;2023-08-08T05:21:12;100584.20;;;13.48
70831;BMP180;58451;51.550;7.208;2023-08-08T05:22:43;100585.80;;;13.50
70831;BMP180;58451;51.550;7.208;2023-08-08T05:24:15;100574.20;;;13.50
70831;BMP180;58451;51.550;7.208;2023-08-08T05:25:47;100574.40;;;13.50
70831;BMP180;58451;51.550;7.208;2023-08-08T05:27:19;100585.60;;;13.50
70831;BMP180;58451;51.550;7.208;2023-08-08T05:28:51;100578.20;;;13.50
70831;BMP180;58451;51.550;7.208;2023-08-08T05:30:23;100575.40;;;13.50
70831;BMP180;58451;51.550;7.208;2023-08-08T05:31:56;100573.20;;;13.50
70831;BMP180;58451;51.550;7.208;2023-08-08T05:33:32;100576.60;;;13.60
70831;BMP180;58451;51.550;7.208;2023-08-08T05:35:05;100580.60;;;13.60
70831;BMP180;58451;51.550;7.208;2023-08-08T05:36:37;100577.00;;;13.60
70831;BMP180;58451;51.550;7.208;2023-08-08T05:38:09;100575.60;;;13.60
70831;BMP180;58451;51.550;7.208;2023-08-08T05:39:41;100577.60;;;13.60
70831;BMP180;58451;51.550;7.208;2023-08-08T05:41:13;100583.20;;;13.60
70831;BMP180;58451;51.550;7.208;2023-08-08T05:42:45;100576.00;;;13.70
70831;BMP180;58451;51.550;7.208;2023-08-08T05:44:17;100575.40;;;13.70
70831;BMP180;58451;51.550;7.208;2023-08-08T05:45:49;100584.20;;;13.70
70831;BMP180;58451;51.550;7.208;2023-08-08T05:47:21;100584.80;;;13.78
70831;BMP180;58451;51.550;7.208;2023-08-08T05:48:53;100585.40;;;13.80
70831;BMP180;58451;51.550;7.208;2023-08-08T05:50:26;100582.40;;;13.80
70831;BMP180;58451;51.550;7.208;2023-08-08T05:51:58;100581.40;;;13.72
70831;BMP180;58451;51.550;7.208;2023-08-08T05:53:31;100586.00;;;13.80
70831;BMP180;58451;51.550;7.208;2023-08-08T05:55:04;100588.40;;;13.72
70831;BMP180;58451;51.550;7.208;2023-08-08T05:56:37;100583.80;;;13.72
70831;BMP180;58451;51.550;7.208;2023-08-08T05:58:09;100581.60;;;13.80
70831;BMP180;58451;51.550;7.208;2023-08-08T05:59:41;100587.00;;;13.80
70831;BMP180;58451;51.550;7.208;2023-08-08T06:01:16;100577.80;;;13.80
70831;BMP180;58451;51.550;7.208;2023-08-08T06:02:49;100578.80;;;13.80
70831;BMP180;58451;51.550;7.208;2023-08-08T06:04:21;100578.20;;;13.90
70831;BMP180;58451;51.550;7.208;2023-08-08T06:05:53;100578.20;;;13.90
70831;BMP180;58451;51.550;7.208;2023-08-08T06:07:25;100575.60;;;13.90
70831;BMP180;58451;51.550;7.208;2023-08-08T06:08:57;100582.80;;;14.00
70831;BMP180;58451;51.550;7.208;2023-08-08T06:10:29;100585.20;;;14.02
70831;BMP180;58451;51.550;7.208;2023-08-08T06:12:01;100590.80;;;14.10
70831;BMP180;58451;51.550;7.208;2023-08-08T06:13:34;100585.80;;;14.10
70831;BMP180;58451;51.550;7.208;2023-08-08T06:15:07;100589.00;;;14.10
70831;BMP180;58451;51.550;7.208;2023-08-08T06:16:40;100595.60;;;14.10
70831;BMP180;58451;51.550;7.208;2023-08-08T06:18:13;100598.80;;;14.00
70831;BMP180;58451;51.550;7.208;2023-08-08T06:19:45;100598.80;;;14.00
70831;BMP180;58451;51.550;7.208;2023-08-08T06:21:17;100593.60;;;14.00
70831;BMP180;58451;51.550;7.208;2023-08-08T06:22:49;100595.20;;;14.00
70831;BMP180;58451;51.550;7.208;2023-08-08T06:24:21;100600.60;;;14.00
70831;BMP180;58451;51.550;7.208;2023-08-08T06:25:53;100596.00;;;14.04
70831;BMP180;58451;51.550;7.208;2023-08-08T06:27:25;100595.40;;;14.10
70831;BMP180;58451;51.550;7.208;2023-08-08T06:28:57;100597.20;;;14.14
70831;BMP180;58451;51.550;7.208;2023-08-08T06:30:29;100593.60;;;14.20
70831;BMP180;58451;51.550;7.208;2023-08-08T06:32:01;100596.20;;;14.22
70831;BMP180;58451;51.550;7.208;2023-08-08T06:33:33;100594.00;;;14.30
70831;BMP180;58451;51.550;7.208;2023-08-08T06:35:05;100604.00;;;14.30
70831;BMP180;58451;51.550;7.208;2023-08-08T06:36:37;100601.60;;;14.30
70831;BMP180;58451;51.550;7.208;2023-08-08T06:38:09;100598.20;;;14.30
70831;BMP180;58451;51.550;7.208;2023-08-08T06:39:41;100594.20;;;14.30
70831;BMP180;58451;51.550;7.208;2023-08-08T06:41:13;100596.60;;;14.40
70831;BMP180;58451;51.550;7.208;2023-08-08T06:42:45;100587.60;;;14.48
70831;BMP180;58451;51.550;7.208;2023-08-08T06:44:17;100597.60;;;14.50
70831;BMP180;58451;51.550;7.208;2023-08-08T06:45:49;100603.60;;;14.60
70831;BMP180;58451;51.550;7.208;2023-08-08T06:47:21;100599.40;;;14.64
70831;BMP180;58451;51.550;7.208;2023-08-08T06:48:53;100600.80;;;14.70
70831;BMP180;58451;51.550;7.208;2023-08-08T06:50:28;100604.60;;;14.70
70831;BMP180;58451;51.550;7.208;2023-08-08T06:52:00;100603.60;;;14.70
70831;BMP180;58451;51.550;7.208;2023-08-08T06:53:32;100602.80;;;14.80
70831;BMP180;58451;51.550;7.208;2023-08-08T06:55:05;100602.20;;;14.80
70831;BMP180;58451;51.550;7.208;2023-08-08T06:56:37;100604.60;;;14.80
70831;BMP180;58451;51.550;7.208;2023-08-08T06:58:09;100608.20;;;14.80
70831;BMP180;58451;51.550;7.208;2023-08-08T06:59:40;100607.80;;;14.80
70831;BMP180;58451;51.550;7.208;2023-08-08T07:01:13;100609.00;;;14.80
70831;BMP180;58451;51.550;7.208;2023-08-08T07:02:45;100603.60;;;14.80
70831;BMP180;58451;51.550;7.208;2023-08-08T07:04:18;100607.80;;;14.80
70831;BMP180;58451;51.550;7.208;2023-08-08T07:05:50;100600.40;;;14.88
70831;BMP180;58451;51.550;7.208;2023-08-08T07:07:24;100605.60;;;14.80
70831;BMP180;58451;51.550;7.208;2023-08-08T07:08:55;100598.20;;;14.80
70831;BMP180;58451;51.550;7.208;2023-08-08T07:10:28;100592.00;;;14.80
70831;BMP180;58451;51.550;7.208;2023-08-08T07:12:00;100593.80;;;14.90
70831;BMP180;58451;51.550;7.208;2023-08-08T07:13:32;100590.00;;;15.00
70831;BMP180;58451;51.550;7.208;2023-08-08T07:15:07;100586.00;;;15.12
70831;BMP180;58451;51.550;7.208;2023-08-08T07:16:40;100581.20;;;15.30
70831;BMP180;58451;51.550;7.208;2023-08-08T07:18:12;100579.00;;;15.32
70831;BMP180;58451;51.550;7.208;2023-08-08T07:19:44;100576.60;;;15.50
70831;BMP180;58451;51.550;7.208;2023-08-08T07:21:15;100585.20;;;15.60
70831;BMP180;58451;51.550;7.208;2023-08-08T07:22:47;100591.60;;;15.70
70831;BMP180;58451;51.550;7.208;2023-08-08T07:24:19;100586.00;;;15.70
70831;BMP180;58451;51.550;7.208;2023-08-08T07:25:52;100588.80;;;15.70
70831;BMP180;58451;51.550;7.208;2023-08-08T07:27:26;100590.60;;;15.70
70831;BMP180;58451;51.550;7.208;2023-08-08T07:28:58;100586.40;;;15.60
70831;BMP180;58451;51.550;7.208;2023-08-08T07:30:30;100581.60;;;15.62
70831;BMP180;58451;51.550;7.208;2023-08-08T07:32:04;100580.80;;;15.70
70831;BMP180;58451;51.550;7.208;2023-08-08T07:33:36;100577.60;;;15.80
70831;BMP180;58451;51.550;7.208;2023-08-08T07:35:08;100574.40;;;15.84
70831;BMP180;58451;51.550;7.208;2023-08-08T07:36:40;100580.40;;;16.00
70831;BMP180;58451;51.550;7.208;2023-08-08T07:38:12;100575.00;;;16.10
70831;BMP180;58451;51.550;7.208;2023-08-08T07:39:44;100574.60;;;16.10
70831;BMP180;58451;51.550;7.208;2023-08-08T07:41:16;100571.60;;;16.20
70831;BMP180;58451;51.550;7.208;2023-08-08T07:42:49;100574.40;;;16.38
70831;BMP180;58451;51.550;7.208;2023-08-08T07:44:21;100569.00;;;16.50
70831;BMP180;58451;51.550;7.208;2023-08-08T07:45:53;100564.20;;;16.68
70831;BMP180;58451;51.550;7.208;2023-08-08T07:47:25;100571.00;;;16.80
70831;BMP180;58451;51.550;7.208;2023-08-08T07:48:57;100564.60;;;16.80
70831;BMP180;58451;51.550;7.208;2023-08-08T07:50:35;100572.20;;;16.94
70831;BMP180;58451;51.550;7.208;2023-08-08T07:52:07;100563.60;;;16.96
70831;BMP180;58451;51.550;7.208;2023-08-08T07:53:39;100564.80;;;17.00
70831;BMP180;58451;51.550;7.208;2023-08-08T07:55:11;100572.40;;;17.00
70831;BMP180;58451;51.550;7.208;2023-08-08T07:56:43;100565.40;;;16.90
70831;BMP180;58451;51.550;7.208;2023-08-08T07:58:15;100560.80;;;16.98
70831;BMP180;58451;51.550;7.208;2023-08-08T07:59:47;100556.20;;;17.00
70831;BMP180;58451;51.550;7.208;2023-08-08T08:01:19;100560.40;;;17.10
70831;BMP180;58451;51.550;7.208;2023-08-08T08:02:51;100556.80;;;17.20
70831;BMP180;58451;51.550;7.208;2023-08-08T08:04:23;100563.00;;;17.20
70831;BMP180;58451;51.550;7.208;2023-08-08T08:05:55;100557.40;;;17.12
70831;BMP180;58451;51.550;7.208;2023-08-08T08:07:27;100553.00;;;17.10
70831;BMP180;58451;51.550;7.208;2023-08-08T08:08:59;100556.20;;;17.10
70831;BMP180;58451;51.550;7.208;2023-08-08T08:10:32;100558.00;;;17.10
70831;BMP180;58451;51.550;7.208;2023-08-08T08:12:04;100554.80;;;17.04
70831;BMP180;58451;51.550;7.208;2023-08-08T08:13:36;100549.60;;;17.10
70831;BMP180;58451;51.550;7.208;2023-08-08T08:15:10;100557.00;;;17.16
70831;BMP180;58451;51.550;7.208;2023-08-08T08:16:42;100556.40;;;17.22
70831;BMP180;58451;51.550;7.208;2023-08-08T08:18:15;100550.20;;;17.42
70831;BMP180;58451;51.550;7.208;2023-08-08T08:19:51;100548.20;;;17.68
70831;BMP180;58451;51.550;7.208;2023-08-08T08:21:23;100547.60;;;17.84
70831;BMP180;58451;51.550;7.208;2023-08-08T08:22:56;100548.20;;;18.10
70831;BMP180;58451;51.550;7.208;2023-08-08T08:24:28;100555.60;;;18.30
70831;BMP180;58451;51.550;7.208;2023-08-08T08:26:00;100556.00;;;18.22
70831;BMP180;58451;51.550;7.208;2023-08-08T08:27:32;100553.60;;;18.26
70831;BMP180;58451;51.550;7.208;2023-08-08T08:29:04;100552.80;;;18.30
70831;BMP180;58451;51.550;7.208;2023-08-08T08:30:36;100555.20;;;18.32
70831;BMP180;58451;51.550;7.208;2023-08-08T08:32:09;100553.00;;;18.50
70831;BMP180;58451;51.550;7.208;2023-08-08T08:33:41;100560.20;;;18.60
70831;BMP180;58451;51.550;7.208;2023-08-08T08:35:13;100556.80;;;18.60
70831;BMP180;58451;51.550;7.208;2023-08-08T08:36:45;100546.20;;;18.54
70831;BMP180;58451;51.550;7.208;2023-08-08T08:38:17;100561.00;;;18.56
70831;BMP180;58451;51.550;7.208;2023-08-08T08:39:49;100560.20;;;18.60
70831;BMP180;58451;51.550;7.208;2023-08-08T08:41:26;100559.00;;;18.46
70831;BMP180;58451;51.550;7.208;2023-08-08T08:43:00;100548.20;;;18.50
70831;BMP180;58451;51.550;7.208;2023-08-08T08:44:32;100547.20;;;18.52
70831;BMP180;58451;51.550;7.208;2023-08-08T08:46:07;100553.00;;;18.56
70831;BMP180;58451;51.550;7.208;2023-08-08T08:47:42;100550.60;;;18.40